Time;durP1;ratioP1;P1;durP2;ratioP2;P2;SDS_P1;SDS_P2;PMS_P1;PMS_P2;Temp;Humidity;BMP_temperature;BMP_pressure;BME280_temperature;BME280_humidity;BME280_pressure;Samples;Min_cycle;Max_cycle;Signal;HPM_P1;HPM_P2
2022/08/25 00:02:28;;;;;;;0.10;0.10;;;;;;;17.47;100.00;102086.06;10436680;28;20361;-74
2022/08/25 00:07:30;;;;;;;0.10;0.10;;;;;;;17.45;100.00;102082.72;10433076;28;20460;-74
2022/08/25 00:12:30;;;;;;;0.10;0.10;;;;;;;17.44;100.00;102076.47;10429690;28;20263;-73
2022/08/25 00:17:30;;;;;;;0.10;0.10;;;;;;;17.45;100.00;102070.06;10438457;28;20044;-73
2022/08/25 00:22:31;;;;;;;0.00;0.00;;;;;;;17.42;100.00;102078.50;10434175;28;20268;-73
2022/08/25 00:27:31;;;;;;;0.00;0.00;;;;;;;17.36;100.00;102080.03;10425538;28;20028;-73
2022/08/25 00:32:31;;;;;;;0.10;0.10;;;;;;;17.28;100.00;102085.47;10428951;28;20025;-73
2022/08/25 00:37:31;;;;;;;0.10;0.10;;;;;;;17.18;100.00;102082.94;10452642;28;20025;-73
2022/08/25 00:42:32;;;;;;;0.10;0.10;;;;;;;17.13;100.00;102085.34;10433994;28;20020;-73
2022/08/25 00:47:32;;;;;;;0.10;0.10;;;;;;;17.06;100.00;102078.13;10430735;28;20053;-73
2022/08/25 00:52:44;;;;;;;0.10;0.10;;;;;;;17.01;100.00;102086.69;10421743;28;20021;-73
2022/08/25 00:57:59;;;;;;;0.03;0.03;;;;;;;16.91;100.00;102086.88;10443904;28;20017;-73
2022/08/25 01:02:59;;;;;;;0.10;0.10;;;;;;;16.83;100.00;102084.19;10434039;28;20446;-73
2022/08/25 01:08:05;;;;;;;0.10;0.10;;;;;;;16.77;100.00;102078.66;10429718;28;20013;-73
2022/08/25 01:13:18;;;;;;;0.10;0.10;;;;;;;16.72;100.00;102077.28;10408558;28;20029;-72
2022/08/25 01:18:18;;;;;;;0.10;0.10;;;;;;;16.71;100.00;102088.22;10429557;28;20384;-73
2022/08/25 01:23:21;;;;;;;0.10;0.10;;;;;;;16.69;100.00;102080.28;10424402;28;20033;-73
2022/08/25 01:28:22;;;;;;;0.00;0.00;;;;;;;16.70;100.00;102082.00;10443022;28;20021;-74
2022/08/25 01:33:22;;;;;;;0.00;0.00;;;;;;;16.73;100.00;102080.81;10428831;28;20452;-73
2022/08/25 01:38:23;;;;;;;0.10;0.10;;;;;;;16.75;100.00;102081.47;10418023;28;20036;-73
2022/08/25 01:43:35;;;;;;;0.10;0.10;;;;;;;16.75;100.00;102079.66;10434273;28;20023;-73
2022/08/25 01:48:36;;;;;;;0.07;0.07;;;;;;;16.77;100.00;102092.94;10415126;28;20021;-73
2022/08/25 01:53:36;;;;;;;0.10;0.10;;;;;;;16.74;100.00;102094.09;10435000;28;20256;-73
2022/08/25 01:58:41;;;;;;;0.10;0.10;;;;;;;16.68;100.00;102086.69;10435614;28;20057;-73
2022/08/25 02:03:44;;;;;;;0.00;0.00;;;;;;;16.66;100.00;102091.41;10413705;28;20068;-74
2022/08/25 02:08:49;;;;;;;0.10;0.10;;;;;;;16.68;100.00;102097.47;10438817;28;20028;-73
2022/08/25 02:13:51;;;;;;;0.10;0.10;;;;;;;16.67;100.00;102094.94;10416023;28;20449;-74
2022/08/25 02:18:52;;;;;;;0.10;0.10;;;;;;;16.68;100.00;102100.16;10423378;28;20013;-73
2022/08/25 02:23:53;;;;;;;0.10;0.10;;;;;;;16.67;100.00;102095.78;10436082;28;20021;-73
2022/08/25 02:28:53;;;;;;;0.10;0.10;;;;;;;16.60;100.00;102094.75;10442563;28;20120;-73
2022/08/25 02:33:55;;;;;;;0.10;0.10;;;;;;;16.51;100.00;102090.41;10424147;28;20376;-73
2022/08/25 02:38:56;;;;;;;0.10;0.10;;;;;;;16.43;100.00;102099.28;10417757;28;20025;-73
2022/08/25 02:43:56;;;;;;;0.10;0.10;;;;;;;16.37;100.00;102094.56;10429146;28;20025;-73
2022/08/25 02:48:57;;;;;;;0.10;0.10;;;;;;;16.37;100.00;102088.38;10421373;28;20021;-73
2022/08/25 02:54:00;;;;;;;0.10;0.10;;;;;;;16.36;100.00;102092.06;10439783;28;20025;-74
2022/08/25 02:59:01;;;;;;;0.10;0.10;;;;;;;16.33;100.00;102087.88;10453242;28;20025;-73
2022/08/25 03:04:02;;;;;;;0.10;0.10;;;;;;;16.35;100.00;102085.00;10448248;28;20037;-73
2022/08/25 03:09:03;;;;;;;0.10;0.10;;;;;;;16.38;100.00;102087.38;10436025;28;20021;-74
2022/08/25 03:14:05;;;;;;;0.10;0.10;;;;;;;16.42;100.00;102083.34;10425466;28;20022;-73
2022/08/25 03:19:05;;;;;;;0.10;0.10;;;;;;;16.45;100.00;102077.63;10435331;28;20021;-74
2022/08/25 03:24:06;;;;;;;0.10;0.10;;;;;;;16.41;100.00;102074.44;10441043;28;20047;-74
2022/08/25 03:29:06;;;;;;;0.03;0.03;;;;;;;16.39;100.00;102080.97;10414991;28;20076;-73
2022/08/25 03:34:08;;;;;;;0.10;0.10;;;;;;;16.30;100.00;102067.53;10421534;28;20017;-73
2022/08/25 03:39:08;;;;;;;0.10;0.10;;;;;;;16.30;100.00;102072.06;10429745;28;20029;-73
2022/08/25 03:44:09;;;;;;;0.10;0.10;;;;;;;16.20;100.00;102069.53;10438549;28;20021;-74
2022/08/25 03:49:12;;;;;;;0.10;0.10;;;;;;;16.15;100.00;102074.56;10423744;28;20018;-73
2022/08/25 03:54:15;;;;;;;0.00;0.00;;;;;;;16.07;100.00;102061.09;10418547;28;20055;-73
2022/08/25 03:59:16;;;;;;;0.10;0.10;;;;;;;16.05;100.00;102068.50;10419761;28;20034;-73
2022/08/25 04:04:16;;;;;;;0.10;0.10;;;;;;;16.00;100.00;102071.69;10425480;28;20021;-73
2022/08/25 04:09:16;;;;;;;0.10;0.10;;;;;;;15.99;100.00;102066.47;10428199;28;20309;-73
2022/08/25 04:14:18;;;;;;;0.10;0.10;;;;;;;15.91;100.00;102063.75;10425497;28;20039;-73
2022/08/25 04:19:19;;;;;;;0.10;0.10;;;;;;;15.67;100.00;102068.00;10424300;28;20036;-73
2022/08/25 04:24:20;;;;;;;0.00;0.00;;;;;;;15.58;100.00;102061.78;10433653;28;20018;-73
2022/08/25 04:29:23;;;;;;;0.10;0.10;;;;;;;15.69;100.00;102071.41;10430636;28;20036;-73
2022/08/25 04:34:25;;;;;;;0.10;0.10;;;;;;;16.05;100.00;102079.25;10414473;28;20021;-74
2022/08/25 04:39:25;;;;;;;0.10;0.10;;;;;;;16.56;100.00;102082.66;10401114;28;20055;-73
2022/08/25 04:44:26;;;;;;;0.10;0.10;;;;;;;17.11;100.00;102073.91;10438787;22;20120;-73
2022/08/25 04:49:27;;;;;;;0.10;0.10;;;;;;;17.76;100.00;102070.09;10440467;28;20033;-73
2022/08/25 04:54:27;;;;;;;0.03;0.03;;;;;;;18.43;100.00;102064.13;10382195;28;20018;-73
2022/08/25 04:59:28;;;;;;;0.10;0.10;;;;;;;18.99;100.00;102063.81;10386383;28;20033;-73
2022/08/25 05:04:29;;;;;;;0.00;0.00;;;;;;;19.59;100.00;102061.97;10379712;28;20025;-73
2022/08/25 05:09:30;;;;;;;0.10;0.10;;;;;;;20.16;100.00;102063.91;10368951;28;20045;-73
2022/08/25 05:14:31;;;;;;;0.00;0.00;;;;;;;20.75;100.00;102063.63;10382646;28;20110;-73
2022/08/25 05:19:31;;;;;;;0.10;0.10;;;;;;;21.37;100.00;102055.69;10378318;28;20077;-73
2022/08/25 05:24:32;;;;;;;0.10;0.10;;;;;;;21.94;100.00;102057.16;10387312;28;20044;-73
2022/08/25 05:29:32;;;;;;;0.10;0.10;;;;;;;22.53;100.00;102051.00;10377191;28;20018;-73
2022/08/25 05:34:32;;;;;;;0.05;0.05;;;;;;;23.12;100.00;102040.28;10382049;28;20021;-73
2022/08/25 05:39:33;;;;;;;0.00;0.00;;;;;;;23.47;100.00;102046.25;10377020;28;20036;-73
2022/08/25 05:44:33;;;;;;;0.10;0.10;;;;;;;23.85;100.00;102056.34;10374550;28;20021;-74
2022/08/25 05:49:33;;;;;;;0.00;0.00;;;;;;;24.30;100.00;102065.28;10371450;28;20024;-73
2022/08/25 05:54:33;;;;;;;0.00;0.00;;;;;;;24.92;100.00;102065.41;10378535;28;20396;-74
2022/08/25 05:59:34;;;;;;;0.10;0.10;;;;;;;25.33;100.00;102057.66;10374699;28;20021;-74
2022/08/25 06:04:35;;;;;;;0.10;0.10;;;;;;;25.37;100.00;102056.16;10374167;28;20256;-74
2022/08/25 06:09:39;;;;;;;0.10;0.10;;;;;;;25.38;100.00;102046.91;10375499;28;20147;-74
2022/08/25 06:14:40;;;;;;;0.00;0.00;;;;;;;25.46;100.00;102052.88;10371657;28;20268;-74
2022/08/25 06:19:41;;;;;;;0.10;0.10;;;;;;;25.55;100.00;102042.50;10370161;28;20026;-74
2022/08/25 06:24:41;;;;;;;0.03;0.03;;;;;;;25.46;100.00;102041.97;10355918;28;20388;-74
2022/08/25 06:29:41;;;;;;;0.10;0.10;;;;;;;25.58;100.00;102039.31;10369846;28;20018;-74
2022/08/25 06:34:42;;;;;;;0.00;0.00;;;;;;;25.64;100.00;102040.28;10371861;28;20029;-74
2022/08/25 06:39:42;;;;;;;0.00;0.00;;;;;;;25.73;100.00;102042.44;10373640;28;20381;-74
2022/08/25 06:44:43;;;;;;;0.10;0.10;;;;;;;26.37;100.00;102039.22;10378360;28;20033;-74
2022/08/25 06:49:44;;;;;;;0.10;0.10;;;;;;;26.70;97.89;102038.66;10371131;28;20017;-75
2022/08/25 06:54:45;;;;;;;0.10;0.10;;;;;;;26.57;98.38;102041.66;10378920;28;20091;-75
2022/08/25 06:59:45;;;;;;;0.00;0.00;;;;;;;26.34;99.47;102045.97;10374481;28;20075;-75
2022/08/25 07:04:45;;;;;;;0.10;0.10;;;;;;;26.53;98.45;102049.50;10380742;28;20388;-75
2022/08/25 07:09:46;;;;;;;0.10;0.10;;;;;;;26.59;99.81;102048.53;10374156;28;20024;-75
2022/08/25 07:14:46;;;;;;;0.10;0.10;;;;;;;26.53;100.00;102045.91;10380082;28;20132;-75
2022/08/25 07:19:46;;;;;;;0.10;0.10;;;;;;;26.57;99.90;102050.66;10398427;28;20744;-74
2022/08/25 07:24:47;;;;;;;0.10;0.10;;;;;;;26.43;98.82;102041.00;10374821;28;20033;-75
2022/08/25 07:29:48;;;;;;;0.00;0.00;;;;;;;25.87;100.00;102045.84;10369901;28;20327;-75
2022/08/25 07:35:36;;;;;;;0.10;0.10;;;;;;;25.88;100.00;102039.31;10352239;28;20075;-75
2022/08/25 07:40:23;;;;;;;0.10;0.10;;;;;;;26.19;100.00;102054.63;10367977;28;20045;-74
2022/08/25 07:45:29;;;;;;;0.10;0.10;;;;;;;26.01;100.00;102043.78;10384286;28;20034;-75
2022/08/25 07:50:30;;;;;;;0.10;0.10;;;;;;;25.92;100.00;102047.91;10376750;28;20021;-74
2022/08/25 07:55:32;;;;;;;0.00;0.00;;;;;;;25.58;100.00;102042.03;10390601;28;20017;-75
2022/08/25 08:00:35;;;;;;;0.00;0.00;;;;;;;25.60;100.00;102042.63;10377817;28;20479;-75
2022/08/25 08:05:40;;;;;;;0.00;0.00;;;;;;;25.54;100.00;102038.09;10360439;28;20487;-74
2022/08/25 08:10:41;;;;;;;0.10;0.10;;;;;;;25.73;100.00;102047.91;10392561;28;20028;-75
2022/08/25 08:15:43;;;;;;;0.10;0.10;;;;;;;25.66;100.00;102054.53;10396426;28;20468;-74
2022/08/25 08:20:45;;;;;;;0.10;0.10;;;;;;;25.45;100.00;102058.56;10373773;28;20385;-74
2022/08/25 08:25:46;;;;;;;0.10;0.10;;;;;;;25.48;100.00;102047.19;10381428;28;20480;-74
2022/08/25 08:30:47;;;;;;;0.00;0.00;;;;;;;25.37;100.00;102056.16;10370301;28;20088;-74
2022/08/25 08:36:04;;;;;;;0.00;0.00;;;;;;;25.29;100.00;102060.84;10383175;28;20022;-74
2022/08/25 08:46:56;;;;;;;0.00;0.00;;;;;;;25.49;100.00;102046.13;10402256;28;20085;-74
2022/08/25 08:52:00;;;;;;;0.10;0.10;;;;;;;25.36;100.00;102038.94;10403249;28;20404;-74
2022/08/25 08:57:09;;;;;;;0.00;0.00;;;;;;;25.02;100.00;102040.38;10375066;28;20018;-74
2022/08/25 09:02:21;;;;;;;0.10;0.10;;;;;;;25.23;100.00;102031.75;10354941;28;20032;-74
2022/08/25 09:07:29;;;;;;;0.10;0.10;;;;;;;25.13;100.00;102034.13;10379342;28;20026;-75
2022/08/25 09:12:40;;;;;;;0.00;0.00;;;;;;;25.27;100.00;102029.41;10370041;28;20052;-74
2022/08/25 09:17:55;;;;;;;0.10;0.10;;;;;;;24.61;100.00;102031.75;10379429;28;20481;-75
2022/08/25 09:23:20;;;;;;;0.10;0.10;;;;;;;24.04;100.00;102030.06;10371785;28;20499;-75
2022/08/25 09:28:50;;;;;;;0.10;0.10;;;;;;;23.94;100.00;102046.91;10390422;28;20025;-75
2022/08/25 09:33:54;;;;;;;0.00;0.00;;;;;;;23.81;100.00;102047.78;10375144;28;20073;-75
2022/08/25 09:38:55;;;;;;;0.00;0.00;;;;;;;23.69;100.00;102038.63;10368009;28;20061;-75
2022/08/25 09:43:55;;;;;;;0.00;0.00;;;;;;;23.99;100.00;102041.59;10367262;28;20502;-74
2022/08/25 09:49:11;;;;;;;0.00;0.00;;;;;;;24.01;100.00;102025.06;10408354;28;20053;-74
2022/08/25 09:54:12;;;;;;;0.00;0.00;;;;;;;23.84;100.00;102022.03;10396002;28;20028;-74
2022/08/25 09:59:26;;;;;;;0.10;0.10;;;;;;;23.81;100.00;102011.59;10368247;28;20032;-74
2022/08/25 10:04:38;;;;;;;0.00;0.00;;;;;;;24.00;100.00;102002.47;10372607;28;20061;-74
2022/08/25 10:09:41;;;;;;;0.00;0.00;;;;;;;24.25;100.00;102001.66;10408633;28;20049;-75
2022/08/25 10:14:42;;;;;;;0.00;0.00;;;;;;;24.42;100.00;102000.03;10400876;28;20022;-75
2022/08/25 10:19:43;;;;;;;0.00;0.00;;;;;;;24.57;100.00;101989.66;10377770;28;20405;-75
2022/08/25 10:24:44;;;;;;;0.00;0.00;;;;;;;24.33;100.00;101983.16;10371517;28;20025;-74
2022/08/25 10:30:15;;;;;;;0.00;0.00;;;;;;;24.37;100.00;101978.09;10397959;28;20339;-74
2022/08/25 10:35:41;;;;;;;0.00;0.00;;;;;;;24.49;100.00;101973.59;10360462;28;20304;-75
2022/08/25 10:40:53;;;;;;;0.00;0.00;;;;;;;24.68;100.00;101963.56;10363300;28;20468;-74
2022/08/25 10:46:01;;;;;;;0.10;0.10;;;;;;;24.79;100.00;101957.38;10387403;22;20491;-73
2022/08/25 10:51:13;;;;;;;0.05;0.05;;;;;;;24.85;100.00;101945.56;10407413;28;20021;-73
2022/08/25 10:56:20;;;;;;;0.10;0.10;;;;;;;25.20;100.00;101947.69;10406709;28;20038;-73
2022/08/25 11:01:47;;;;;;;0.00;0.00;;;;;;;25.37;100.00;101936.16;10404736;28;20017;-73
2022/08/25 11:07:01;;;;;;;0.10;0.10;;;;;;;25.51;100.00;101923.97;10403751;28;20384;-73
2022/08/25 11:12:09;;;;;;;0.10;0.10;;;;;;;25.64;100.00;101921.06;10372317;28;20026;-73
2022/08/25 11:17:22;;;;;;;0.00;0.00;;;;;;;25.73;100.00;101914.19;10397514;28;20021;-74
2022/08/25 11:22:39;;;;;;;0.00;0.00;;;;;;;25.93;100.00;101907.63;10398497;28;20029;-73
2022/08/25 11:27:46;;;;;;;0.10;0.10;;;;;;;26.30;100.00;101907.41;10410332;28;20461;-73
2022/08/25 11:32:50;;;;;;;0.00;0.00;;;;;;;26.28;99.38;101893.97;10409843;28;20021;-75
2022/08/25 11:38:12;;;;;;;0.00;0.00;;;;;;;26.43;97.98;101885.28;10408309;28;20040;-74
2022/08/25 11:43:24;;;;;;;;;;;;;;;26.48;100.00;101879.94;10407028;28;20027;-74
2022/08/25 11:48:36;;;;;;;0.10;0.10;;;;;;;26.62;97.73;101873.19;10413860;28;20311;-74
2022/08/25 11:53:39;;;;;;;0.00;0.00;;;;;;;26.88;98.80;101870.97;10412849;28;20488;-73
2022/08/25 11:58:49;;;;;;;0.00;0.00;;;;;;;27.02;95.82;101850.47;10408881;28;20029;-73
2022/08/25 12:03:50;;;;;;;0.00;0.00;;;;;;;27.19;95.49;101852.44;10412199;28;20014;-73
2022/08/25 12:09:12;;;;;;;0.10;0.10;;;;;;;27.22;95.06;101850.03;10413556;28;20076;-73
2022/08/25 12:14:12;;;;;;;0.10;0.10;;;;;;;26.58;95.76;101841.09;10404424;28;20476;-73
2022/08/25 12:19:45;;;;;;;0.00;0.00;;;;;;;26.71;96.37;101840.03;10414532;28;20021;-73
2022/08/25 12:24:50;;;;;;;0.00;0.00;;;;;;;27.23;93.17;101823.53;10397287;28;20451;-73
2022/08/25 12:30:00;;;;;;;0.10;0.10;;;;;;;27.58;89.52;101823.31;10413170;28;20369;-73
2022/08/25 12:35:28;;;;;;;0.00;0.00;;;;;;;27.71;86.52;101814.75;10405738;28;20078;-74
2022/08/25 12:40:34;;;;;;;0.10;0.10;;;;;;;27.93;90.50;101809.38;10412742;28;20017;-73
2022/08/25 12:45:41;;;;;;;0.08;0.08;;;;;;;27.85;83.59;101807.06;10411943;28;20032;-73
2022/08/25 12:50:46;;;;;;;0.00;0.00;;;;;;;27.56;80.17;101806.31;10411743;28;20542;-73
2022/08/25 12:55:53;;;;;;;0.10;0.10;;;;;;;27.78;82.34;101806.38;10410931;28;20048;-73
2022/08/25 13:01:08;;;;;;;0.10;0.10;;;;;;;27.38;81.81;101809.28;10411215;28;20368;-74
2022/08/25 13:06:41;;;;;;;0.10;0.10;;;;;;;27.45;83.23;101791.63;10411248;28;20464;-73
2022/08/25 13:12:04;;;;;;;0.10;0.10;;;;;;;27.47;83.92;101781.25;10403168;28;20120;-73
2022/08/25 13:17:05;;;;;;;0.10;0.10;;;;;;;27.57;82.32;101771.56;10394766;28;20030;-73
2022/08/25 13:22:14;;;;;;;0.10;0.10;;;;;;;27.48;82.21;101766.50;10410086;28;20571;-73
2022/08/25 13:27:25;;;;;;;0.10;0.10;;;;;;;27.40;81.51;101758.72;10408740;28;20108;-73
2022/08/25 13:32:35;;;;;;;0.10;0.10;;;;;;;27.46;83.15;101744.06;10404635;28;20435;-73
2022/08/25 13:37:35;;;;;;;0.10;0.10;;;;;;;27.63;80.31;101749.47;10409368;28;20502;-73
2022/08/25 13:42:38;;;;;;;0.10;0.10;;;;;;;27.44;79.69;101740.72;10409565;28;20017;-73
2022/08/25 13:47:40;;;;;;;0.10;0.10;;;;;;;27.36;81.26;101743.88;10371176;28;20037;-75
2022/08/25 13:52:45;;;;;;;0.00;0.00;;;;;;;27.63;79.44;101726.75;10376673;28;20021;-73
2022/08/25 13:57:46;;;;;;;0.10;0.10;;;;;;;27.72;78.25;101726.09;10408465;28;20453;-73
2022/08/25 14:02:52;;;;;;;0.03;0.03;;;;;;;27.71;79.27;101718.94;10406903;28;20101;-73
2022/08/25 14:07:54;;;;;;;0.00;0.00;;;;;;;27.83;78.89;101718.88;10408222;28;20021;-73
2022/08/25 14:13:14;;;;;;;0.00;0.00;;;;;;;27.84;76.93;101703.25;10409019;28;20399;-73
2022/08/25 14:18:26;;;;;;;0.10;0.10;;;;;;;27.91;78.48;101707.47;10400108;28;20021;-74
2022/08/25 14:23:29;;;;;;;0.00;0.00;;;;;;;27.99;78.92;101698.84;10379257;28;20084;-74
2022/08/25 14:28:30;;;;;;;0.10;0.10;;;;;;;28.02;76.26;101688.47;10407394;28;20033;-73
2022/08/25 14:33:58;;;;;;;0.05;0.05;;;;;;;28.10;75.39;101677.03;10405202;28;20021;-73
2022/08/25 14:38:59;;;;;;;0.00;0.00;;;;;;;28.16;74.81;101670.56;10404376;28;20037;-74
2022/08/25 14:44:00;;;;;;;0.10;0.10;;;;;;;27.96;74.33;101677.44;10408057;28;20079;-73
2022/08/25 14:49:08;;;;;;;0.00;0.00;;;;;;;27.70;74.52;101672.69;10415881;28;20025;-74
2022/08/25 14:54:13;;;;;;;0.10;0.10;;;;;;;27.58;75.15;101666.47;10415100;28;20032;-73
2022/08/25 14:59:14;;;;;;;0.00;0.00;;;;;;;27.57;77.14;101662.91;10410885;28;20029;-73
2022/08/25 15:04:21;;;;;;;0.10;0.10;;;;;;;27.57;78.39;101653.88;10401835;28;20013;-73
2022/08/25 15:09:21;;;;;;;0.10;0.10;;;;;;;27.50;75.31;101660.38;10373526;28;20141;-74
2022/08/25 15:14:25;;;;;;;0.03;0.03;;;;;;;27.42;77.79;101647.13;10374357;28;20469;-74
2022/08/25 15:19:26;;;;;;;0.10;0.10;;;;;;;27.40;75.31;101641.09;10373235;28;20022;-74
2022/08/25 15:24:27;;;;;;;0.10;0.10;;;;;;;27.31;77.27;101637.97;10393507;28;20483;-73
2022/08/25 15:29:30;;;;;;;0.00;0.00;;;;;;;27.26;77.36;101629.69;10414906;28;20022;-73
2022/08/25 15:34:30;;;;;;;0.10;0.10;;;;;;;27.21;75.75;101610.44;10414595;28;20017;-73
2022/08/25 15:39:31;;;;;;;0.00;0.00;;;;;;;27.26;76.78;101618.75;10413129;28;20025;-73
2022/08/25 15:44:32;;;;;;;0.10;0.10;;;;;;;27.28;77.52;101611.09;10413372;28;20073;-73
2022/08/25 15:49:33;;;;;;;0.10;0.10;;;;;;;27.26;77.25;101602.31;10413017;28;20242;-73
2022/08/25 15:54:33;;;;;;;0.10;0.10;;;;;;;27.16;76.41;101610.38;10412642;28;20104;-73
2022/08/25 15:59:34;;;;;;;0.00;0.00;;;;;;;27.08;78.48;101588.88;10412263;28;20025;-73
2022/08/25 16:04:35;;;;;;;0.10;0.10;;;;;;;27.03;76.40;101600.59;10412683;28;20021;-73
2022/08/25 16:09:35;;;;;;;0.03;0.03;;;;;;;26.90;77.31;101600.09;10410278;28;20025;-74
2022/08/25 16:14:36;;;;;;;0.10;0.10;;;;;;;26.72;79.19;101593.81;10411928;28;20047;-74
2022/08/25 16:19:37;;;;;;;0.10;0.10;;;;;;;26.55;81.40;101582.03;10413105;28;20021;-74
2022/08/25 16:24:39;;;;;;;0.10;0.10;;;;;;;26.41;82.08;101585.09;10412043;28;20092;-74
2022/08/25 16:29:42;;;;;;;0.00;0.00;;;;;;;26.28;82.62;101593.56;10372387;28;20076;-74
2022/08/25 16:34:42;;;;;;;0.10;0.10;;;;;;;26.20;81.47;101581.13;10371307;28;20052;-74
2022/08/25 16:39:44;;;;;;;0.00;0.00;;;;;;;26.26;82.55;101581.25;10371251;28;20026;-74
2022/08/25 16:44:44;;;;;;;0.10;0.10;;;;;;;26.29;81.20;101575.28;10376706;28;20057;-74
2022/08/25 16:49:45;;;;;;;0.10;0.10;;;;;;;26.35;80.41;101571.56;10416329;22;20130;-74
2022/08/25 17:00:09;;;;;;;0.00;0.00;;;;;;;26.31;82.90;101562.22;10411537;28;20033;-74
2022/08/25 17:05:11;;;;;;;0.00;0.00;;;;;;;26.22;86.35;101553.59;10385482;28;20451;-74
2022/08/25 17:10:11;;;;;;;0.00;0.00;;;;;;;26.11;86.55;101554.50;10392328;28;20419;-74
2022/08/25 17:15:11;;;;;;;0.10;0.10;;;;;;;25.97;86.51;101564.88;10408024;28;20075;-74
2022/08/25 17:20:12;;;;;;;0.10;0.10;;;;;;;25.86;86.60;101563.88;10411428;28;20462;-74
2022/08/25 17:25:12;;;;;;;0.10;0.10;;;;;;;25.77;89.40;101561.72;10386243;28;20029;-74
2022/08/25 17:30:12;;;;;;;0.00;0.00;;;;;;;25.67;89.28;101557.72;10394300;28;20048;-74
2022/08/25 17:35:13;;;;;;;0.00;0.00;;;;;;;25.56;89.49;101561.31;10392676;28;20032;-74
2022/08/25 17:40:14;;;;;;;0.10;0.10;;;;;;;25.45;89.77;101562.16;10400139;28;20277;-74
2022/08/25 17:45:14;;;;;;;0.10;0.10;;;;;;;25.31;91.77;101561.63;10369974;28;20032;-74
2022/08/25 17:50:14;;;;;;;0.10;0.10;;;;;;;25.16;93.13;101559.38;10383494;28;20109;-74
2022/08/25 17:55:15;;;;;;;0.00;0.00;;;;;;;24.92;100.00;101563.13;10388805;28;20319;-74
2022/08/25 18:00:18;;;;;;;0.10;0.10;;;;;;;24.68;100.00;101565.03;10374419;28;20474;-75
2022/08/25 18:05:19;;;;;;;0.00;0.00;;;;;;;24.43;100.00;101562.50;10379056;28;20037;-74
2022/08/25 18:10:19;;;;;;;0.10;0.10;;;;;;;24.22;100.00;101570.09;10381974;28;20480;-74
2022/08/25 18:15:20;;;;;;;0.00;0.00;;;;;;;24.00;100.00;101577.09;10387691;28;20017;-75
2022/08/25 18:20:20;;;;;;;0.00;0.00;;;;;;;23.82;100.00;101573.38;10379404;28;20096;-75
2022/08/25 18:25:21;;;;;;;0.03;0.03;;;;;;;23.60;100.00;101580.34;10385524;28;20740;-75
2022/08/25 18:30:21;;;;;;;0.10;0.10;;;;;;;23.40;100.00;101578.66;10401824;28;20468;-75
2022/08/25 18:35:22;;;;;;;0.10;0.10;;;;;;;23.20;100.00;101580.75;10385726;28;20022;-75
2022/08/25 18:40:22;;;;;;;0.00;0.00;;;;;;;22.95;100.00;101572.63;10410221;28;20076;-76
2022/08/25 18:45:26;;;;;;;0.00;0.00;;;;;;;22.73;100.00;101580.34;10396813;28;20377;-75
2022/08/25 18:50:30;;;;;;;0.10;0.10;;;;;;;22.50;100.00;101579.03;10387876;28;20514;-75
2022/08/25 18:55:31;;;;;;;0.03;0.03;;;;;;;22.32;100.00;101587.09;10400484;28;20090;-75
2022/08/25 19:00:33;;;;;;;0.08;0.08;;;;;;;22.17;100.00;101590.13;10404130;28;20599;-75
2022/08/25 19:05:35;;;;;;;0.08;0.08;;;;;;;22.12;100.00;101584.47;10390260;28;20160;-75
2022/08/25 19:10:37;;;;;;;0.00;0.00;;;;;;;22.07;100.00;101587.00;10404120;28;20055;-74
2022/08/25 19:15:39;;;;;;;0.10;0.10;;;;;;;21.95;100.00;101584.13;10371074;28;20308;-75
2022/08/25 19:20:41;;;;;;;0.00;0.00;;;;;;;21.89;100.00;101585.00;10384602;28;20041;-74
2022/08/25 19:25:41;;;;;;;0.10;0.10;;;;;;;21.81;100.00;101588.78;10369954;28;20481;-75
2022/08/25 19:30:41;;;;;;;0.03;0.03;;;;;;;21.73;100.00;101588.19;10383401;28;20115;-75
2022/08/25 19:35:47;;;;;;;0.00;0.00;;;;;;;21.62;100.00;101584.28;10402780;28;20014;-75
2022/08/25 19:40:49;;;;;;;0.00;0.00;;;;;;;21.55;100.00;101592.44;10386513;28;20366;-74
2022/08/25 19:45:50;;;;;;;0.00;0.00;;;;;;;21.46;100.00;101586.41;10383301;28;20033;-74
2022/08/25 19:50:51;;;;;;;0.10;0.10;;;;;;;21.38;100.00;101588.50;10395816;28;20032;-75
2022/08/25 19:55:52;;;;;;;0.10;0.10;;;;;;;21.25;100.00;101581.22;10405287;28;20045;-75
2022/08/25 20:00:53;;;;;;;0.10;0.10;;;;;;;21.11;100.00;101580.41;10412731;28;20032;-75
2022/08/25 20:05:54;;;;;;;0.00;0.00;;;;;;;20.98;100.00;101581.28;10398673;28;20108;-75
2022/08/25 20:10:55;;;;;;;0.00;0.00;;;;;;;20.89;100.00;101587.13;10395749;28;20021;-75
2022/08/25 20:15:55;;;;;;;0.08;0.08;;;;;;;20.77;100.00;101587.75;10382492;28;20026;-74
2022/08/25 20:20:55;;;;;;;0.10;0.10;;;;;;;20.61;100.00;101576.50;10384521;28;20021;-75
2022/08/25 20:25:56;;;;;;;0.00;0.00;;;;;;;20.47;100.00;101581.00;10384694;28;20034;-74
2022/08/25 20:30:56;;;;;;;0.10;0.10;;;;;;;20.34;100.00;101588.06;10395185;28;20030;-75
2022/08/25 20:35:56;;;;;;;0.07;0.07;;;;;;;20.22;100.00;101586.19;10389243;28;20032;-75
2022/08/25 20:40:58;;;;;;;0.00;0.00;;;;;;;20.08;100.00;101590.72;10400554;28;20037;-75
2022/08/25 20:46:00;;;;;;;0.10;0.10;;;;;;;19.94;100.00;101589.00;10402365;28;20041;-75
2022/08/25 20:51:05;;;;;;;0.10;0.10;;;;;;;19.84;100.00;101584.00;10379275;28;20061;-75
2022/08/25 20:56:08;;;;;;;0.10;0.10;;;;;;;19.74;100.00;101581.66;10381615;28;20044;-74
2022/08/25 21:01:36;;;;;;;0.10;0.10;;;;;;;19.68;100.00;101579.75;10398363;28;20025;-75
2022/08/25 21:06:37;;;;;;;0.00;0.00;;;;;;;19.62;100.00;101578.66;10372232;28;20290;-74
2022/08/25 21:11:37;;;;;;;0.10;0.10;;;;;;;19.56;100.00;101582.16;10385524;28;20139;-75
2022/08/25 21:16:39;;;;;;;0.10;0.10;;;;;;;19.48;100.00;101573.38;10412052;28;20033;-76
2022/08/25 21:21:40;;;;;;;0.00;0.00;;;;;;;19.41;100.00;101579.59;10370044;28;20022;-76
2022/08/25 21:26:40;;;;;;;0.10;0.10;;;;;;;19.35;100.00;101577.69;10359365;28;20033;-76
2022/08/25 21:31:40;;;;;;;0.10;0.10;;;;;;;19.31;100.00;101573.69;10398129;28;20021;-76
2022/08/25 21:36:41;;;;;;;0.10;0.10;;;;;;;19.27;100.00;101577.84;10370452;28;20398;-76
2022/08/25 21:41:44;;;;;;;0.00;0.00;;;;;;;19.20;100.00;101572.41;10363887;28;20021;-75
2022/08/25 21:46:44;;;;;;;0.10;0.10;;;;;;;19.18;100.00;101576.34;10406050;28;20044;-75
2022/08/25 21:51:45;;;;;;;0.10;0.10;;;;;;;19.18;100.00;101573.63;10377832;28;20025;-76
2022/08/25 21:56:57;;;;;;;0.10;0.10;;;;;;;19.22;100.00;101574.88;10369534;28;20397;-76
2022/08/25 22:02:03;;;;;;;0.00;0.00;;;;;;;19.23;100.00;101572.00;10397822;28;20075;-76
2022/08/25 22:07:03;;;;;;;0.10;0.10;;;;;;;19.26;100.00;101564.50;10370334;28;20104;-76
2022/08/25 22:12:05;;;;;;;0.00;0.00;;;;;;;19.30;100.00;101572.03;10395124;28;20524;-76
2022/08/25 22:17:06;;;;;;;0.10;0.10;;;;;;;19.35;100.00;101566.06;10371465;28;20293;-76
2022/08/25 22:22:06;;;;;;;0.00;0.00;;;;;;;19.48;100.00;101570.69;10381518;28;20033;-76
2022/08/25 22:27:07;;;;;;;0.00;0.00;;;;;;;19.60;100.00;101563.66;10410282;28;20518;-76
2022/08/25 22:32:08;;;;;;;0.00;0.00;;;;;;;19.68;100.00;101560.81;10382326;28;20033;-76
2022/08/25 22:37:09;;;;;;;0.00;0.00;;;;;;;19.75;100.00;101568.97;10351450;28;20026;-76
2022/08/25 22:42:09;;;;;;;0.10;0.10;;;;;;;19.79;100.00;101551.31;10368952;28;20338;-76
2022/08/25 22:47:09;;;;;;;0.10;0.10;;;;;;;19.74;100.00;101551.09;10397853;22;20068;-72
2022/08/25 22:52:10;;;;;;;0.00;0.00;;;;;;;19.67;100.00;101551.91;10430934;28;20383;-73
2022/08/25 22:57:11;;;;;;;0.00;0.00;;;;;;;19.63;100.00;101557.84;10436395;28;20287;-73
2022/08/25 23:02:11;;;;;;;0.00;0.00;;;;;;;19.56;100.00;101554.31;10435092;28;20021;-73
2022/08/25 23:07:12;;;;;;;0.00;0.00;;;;;;;19.48;100.00;101551.75;10440923;28;20021;-73
2022/08/25 23:12:12;;;;;;;0.10;0.10;;;;;;;19.47;100.00;101550.94;10441981;28;20026;-73
2022/08/25 23:17:12;;;;;;;0.00;0.00;;;;;;;19.47;100.00;101550.09;10427269;28;20048;-73